createdAt,value
2023-05-11T00:00:24.691Z,4.40
2023-05-11T00:02:51.654Z,4.45
2023-05-11T00:05:18.581Z,4.35
2023-05-11T00:07:45.558Z,4.37
2023-05-11T00:10:12.410Z,4.68
2023-05-11T00:12:39.301Z,4.40
2023-05-11T00:15:06.795Z,4.78
2023-05-11T00:17:33.761Z,3.65
2023-05-11T00:20:00.908Z,4.57
2023-05-11T00:22:27.760Z,3.72
2023-05-11T00:24:54.665Z,3.78
2023-05-11T00:27:21.483Z,3.78
2023-05-11T00:29:48.283Z,4.03
2023-05-11T00:32:15.089Z,4.53
2023-05-11T00:37:08.824Z,3.80
2023-05-11T00:39:40.591Z,4.35
2023-05-11T00:42:07.620Z,3.65
2023-05-11T00:44:34.528Z,4.18
2023-05-11T00:47:01.463Z,4.60
2023-05-11T00:49:29.946Z,4.80
2023-05-11T00:51:57.924Z,4.22
2023-05-11T00:54:25.068Z,4.95
2023-05-11T00:56:51.961Z,4.90
2023-05-11T00:59:19.255Z,4.80
2023-05-11T01:01:46.329Z,5.00
2023-05-11T01:04:13.465Z,4.95
2023-05-11T01:07:06.510Z,5.20
2023-05-11T01:09:47.265Z,5.22
2023-05-11T01:12:16.766Z,4.62
2023-05-11T01:15:13.040Z,4.78
2023-05-11T01:17:50.464Z,4.40
2023-05-11T01:20:27.186Z,5.07
2023-05-11T01:23:21.163Z,4.45
2023-05-11T01:26:09.740Z,4.28
2023-05-11T01:28:54.773Z,3.35
2023-05-11T01:31:21.882Z,3.53
2023-05-11T01:33:55.807Z,3.40
2023-05-11T01:36:29.351Z,3.53
2023-05-11T01:39:00.608Z,3.33
2023-05-11T01:41:28.509Z,3.53
2023-05-11T01:44:00.192Z,2.92
2023-05-11T01:46:27.667Z,3.47
2023-05-11T01:48:56.824Z,2.53
2023-05-11T01:51:25.180Z,3.10
2023-05-11T01:53:53.809Z,3.28
2023-05-11T01:56:22.809Z,3.70
2023-05-11T01:58:50.689Z,3.08
2023-05-11T02:01:18.653Z,3.55
2023-05-11T02:03:46.681Z,3.87
2023-05-11T02:06:14.785Z,3.10
2023-05-11T02:08:41.944Z,3.05
2023-05-11T02:11:10.633Z,3.33
2023-05-11T02:13:39.507Z,2.90
2023-05-11T02:16:07.100Z,3.30
2023-05-11T02:18:35.201Z,2.83
2023-05-11T02:21:02.878Z,2.80
2023-05-11T02:23:31.633Z,3.35
2023-05-11T02:25:58.741Z,3.45
2023-05-11T02:28:25.928Z,3.55
2023-05-11T02:30:55.985Z,3.92
2023-05-11T02:33:28.983Z,3.30
2023-05-11T02:35:56.673Z,3.75
2023-05-11T02:38:28.969Z,4.70
2023-05-11T02:40:59.140Z,4.47
2023-05-11T02:43:31.613Z,4.53
2023-05-11T02:46:02.644Z,4.47
2023-05-11T02:48:32.683Z,4.37
2023-05-11T02:51:01.642Z,4.03
2023-05-11T02:53:29.395Z,4.82
2023-05-11T02:55:57.560Z,4.07
2023-05-11T02:58:24.648Z,4.68
2023-05-11T03:00:52.000Z,4.37
2023-05-11T03:03:19.202Z,4.40
2023-05-11T03:05:46.189Z,4.43
2023-05-11T03:08:13.013Z,4.50
2023-05-11T03:10:40.652Z,4.80
2023-05-11T03:13:08.081Z,5.03
2023-05-11T03:15:35.133Z,4.82
2023-05-11T03:18:02.426Z,4.97
2023-05-11T03:20:29.541Z,4.72
2023-05-11T03:22:56.950Z,4.87
2023-05-11T03:25:24.608Z,4.57
2023-05-11T03:27:51.752Z,4.68
2023-05-11T03:30:20.381Z,4.65
2023-05-11T03:32:47.470Z,4.93
2023-05-11T03:35:14.389Z,4.53
2023-05-11T03:37:41.540Z,4.18
2023-05-11T03:40:09.269Z,3.85
2023-05-11T03:42:36.695Z,4.62
2023-05-11T03:45:04.546Z,4.32
2023-05-11T03:47:32.115Z,4.65
2023-05-11T03:49:59.237Z,4.37
2023-05-11T03:52:26.529Z,3.85
2023-05-11T03:54:53.584Z,4.07
2023-05-11T03:57:20.451Z,3.47
2023-05-11T03:59:47.430Z,3.97
2023-05-11T04:02:14.312Z,4.07
2023-05-11T04:04:41.205Z,4.50
2023-05-11T04:07:08.101Z,3.47
2023-05-11T04:09:35.008Z,4.22
2023-05-11T04:12:01.890Z,3.65
2023-05-11T04:14:28.717Z,3.85
2023-05-11T04:16:55.582Z,2.47
2023-05-11T04:19:24.022Z,8.40
2023-05-11T04:21:50.874Z,3.80
2023-05-11T04:24:17.759Z,3.75
2023-05-11T04:26:44.833Z,3.60
2023-05-11T04:29:11.727Z,3.83
2023-05-11T04:31:38.605Z,2.95
2023-05-11T04:34:08.622Z,3.60
2023-05-11T04:36:35.470Z,3.33
2023-05-11T04:39:02.376Z,2.97
2023-05-11T04:41:29.244Z,2.35
2023-05-11T04:43:56.070Z,3.55
2023-05-11T04:46:23.741Z,3.30
2023-05-11T04:48:50.793Z,2.30
2023-05-11T04:51:17.638Z,3.33
2023-05-11T04:53:44.730Z,2.83
2023-05-11T04:56:12.918Z,3.05
2023-05-11T04:58:39.820Z,5.55
2023-05-11T05:01:06.777Z,7.45
2023-05-11T05:03:33.669Z,5.68
2023-05-11T05:06:00.648Z,4.40
2023-05-11T05:08:27.514Z,4.60
2023-05-11T05:10:54.386Z,2.28
2023-05-11T05:13:21.236Z,2.78
2023-05-11T05:15:48.048Z,4.22
2023-05-11T05:18:14.985Z,3.00
2023-05-11T05:20:41.842Z,3.08
2023-05-11T05:23:09.337Z,3.03
2023-05-11T05:25:36.190Z,3.70
2023-05-11T05:28:03.043Z,2.62
2023-05-11T05:30:29.939Z,3.80
2023-05-11T05:32:56.826Z,2.90
2023-05-11T05:35:23.705Z,3.35
2023-05-11T05:37:50.559Z,3.53
2023-05-11T05:40:17.601Z,2.83
2023-05-11T05:42:45.763Z,3.15
2023-05-11T05:45:13.981Z,3.30
2023-05-11T05:47:42.026Z,3.33
2023-05-11T05:50:09.275Z,2.10
2023-05-11T05:52:36.650Z,3.45
2023-05-11T05:55:03.678Z,3.00
2023-05-11T05:57:30.884Z,3.62
2023-05-11T05:59:57.795Z,2.53
2023-05-11T06:02:24.713Z,3.40
2023-05-11T06:04:51.678Z,2.65
2023-05-11T06:07:18.544Z,2.78
2023-05-11T06:09:45.447Z,2.83
2023-05-11T06:12:12.368Z,3.17
2023-05-11T06:14:39.403Z,3.40
2023-05-11T06:17:06.368Z,3.65
2023-05-11T06:19:33.397Z,2.62
2023-05-11T06:22:00.260Z,3.03
2023-05-11T06:24:27.194Z,3.40
2023-05-11T06:26:54.065Z,3.72
2023-05-11T06:29:22.440Z,3.87
2023-05-11T06:31:56.185Z,3.87
2023-05-11T06:34:23.113Z,3.97
2023-05-11T06:36:49.974Z,3.08
2023-05-11T06:39:16.849Z,2.85
2023-05-11T06:41:44.682Z,3.75
2023-05-11T06:44:13.122Z,3.25
2023-05-11T06:46:40.113Z,3.08
2023-05-11T06:49:08.776Z,4.20
2023-05-11T06:51:35.720Z,3.15
2023-05-11T06:54:02.753Z,3.60
2023-05-11T06:56:29.934Z,4.18
2023-05-11T06:59:01.439Z,3.70
2023-05-11T07:01:28.491Z,3.55
2023-05-11T07:03:55.977Z,3.08
2023-05-11T07:06:22.882Z,2.40
2023-05-11T07:08:52.801Z,2.47
2023-05-11T07:11:19.786Z,3.08
2023-05-11T07:13:47.795Z,3.87
2023-05-11T07:16:15.022Z,3.00
2023-05-11T07:18:42.005Z,3.28
2023-05-11T07:21:08.977Z,2.62
2023-05-11T07:23:35.824Z,3.60
2023-05-11T07:26:04.706Z,3.30
2023-05-11T07:28:44.009Z,2.33
2023-05-11T07:31:10.965Z,2.62
2023-05-11T07:33:39.582Z,3.20
2023-05-11T07:36:07.529Z,2.67
2023-05-11T07:38:36.551Z,2.75
2023-05-11T07:41:05.965Z,2.42
2023-05-11T07:43:33.611Z,2.53
2023-05-11T07:46:00.609Z,2.20
2023-05-11T07:48:28.976Z,2.78
2023-05-11T07:50:55.977Z,2.25
2023-05-11T07:53:22.823Z,3.05
2023-05-11T07:55:49.745Z,2.47
2023-05-11T07:58:16.746Z,3.05
2023-05-11T08:00:43.737Z,2.97
2023-05-11T08:03:10.747Z,2.62
2023-05-11T08:05:38.133Z,2.42
2023-05-11T08:08:05.459Z,2.97
2023-05-11T08:10:32.340Z,3.03
2023-05-11T08:12:59.358Z,2.90
2023-05-11T08:15:26.237Z,4.12
2023-05-11T08:17:54.214Z,3.08
2023-05-11T08:20:21.089Z,2.60
2023-05-11T08:22:48.128Z,2.50
2023-05-11T08:25:15.003Z,3.45
2023-05-11T08:27:41.928Z,2.08
2023-05-11T08:30:11.764Z,3.30
2023-05-11T08:32:54.489Z,2.33
2023-05-11T08:35:25.177Z,2.72
2023-05-11T08:37:52.073Z,2.42
2023-05-11T08:40:21.956Z,2.17
2023-05-11T08:42:49.947Z,2.80
2023-05-11T08:45:18.050Z,2.65
2023-05-11T08:47:46.415Z,2.45
2023-05-11T08:50:13.441Z,2.28
2023-05-11T08:52:40.936Z,2.53
2023-05-11T08:55:09.431Z,2.92
2023-05-11T08:57:36.667Z,2.05
2023-05-11T09:00:04.447Z,2.85
2023-05-11T09:02:32.328Z,2.90
2023-05-11T09:04:59.967Z,2.65
2023-05-11T09:07:27.398Z,2.20
2023-05-11T09:09:55.110Z,2.45
2023-05-11T09:12:26.237Z,2.17
2023-05-11T09:14:53.177Z,2.00
2023-05-11T09:17:20.193Z,2.65
2023-05-11T09:20:07.807Z,2.22
2023-05-11T09:22:42.350Z,1.90
2023-05-11T09:25:12.001Z,2.12
2023-05-11T09:27:43.311Z,2.20
2023-05-11T09:30:12.519Z,2.30
2023-05-11T09:32:54.635Z,3.30
2023-05-11T09:35:29.515Z,2.30
2023-05-11T09:38:07.118Z,2.20
2023-05-11T09:40:36.811Z,2.80
2023-05-11T09:43:16.871Z,1.80
2023-05-11T09:45:45.642Z,2.35
2023-05-11T09:48:22.227Z,3.00
2023-05-11T09:50:50.352Z,2.30
2023-05-11T09:53:17.833Z,2.08
2023-05-11T09:55:55.708Z,2.00
2023-05-11T09:58:22.587Z,2.03
2023-05-11T10:00:53.832Z,3.53
2023-05-11T10:03:21.019Z,1.30
2023-05-11T10:05:59.060Z,2.35
2023-05-11T10:08:35.962Z,2.58
2023-05-11T10:11:03.188Z,1.90
2023-05-11T10:13:33.509Z,2.47
2023-05-11T10:16:04.139Z,2.05
2023-05-11T10:18:32.654Z,2.08
2023-05-11T10:21:00.217Z,2.30
2023-05-11T10:23:27.392Z,1.98
2023-05-11T10:25:54.625Z,1.75
2023-05-11T10:28:22.534Z,1.87
2023-05-11T10:30:49.880Z,1.87
2023-05-11T10:33:17.305Z,2.28
2023-05-11T10:35:46.069Z,2.30
2023-05-11T10:38:13.716Z,2.25
2023-05-11T10:40:46.371Z,1.98
2023-05-11T10:43:52.594Z,2.12
2023-05-11T10:46:32.032Z,1.75
2023-05-11T10:49:12.897Z,1.85
2023-05-11T10:52:04.436Z,2.30
2023-05-11T10:54:50.622Z,1.77
2023-05-11T10:57:51.290Z,2.10
2023-05-11T11:00:47.960Z,2.03
2023-05-11T11:03:15.863Z,2.20
2023-05-11T11:05:44.178Z,1.90
2023-05-11T11:08:13.125Z,1.80
2023-05-11T11:10:46.232Z,1.80
2023-05-11T11:13:14.272Z,1.67
2023-05-11T11:15:56.288Z,2.33
2023-05-11T11:18:35.983Z,2.05
2023-05-11T11:21:04.437Z,1.65
2023-05-11T11:23:40.845Z,1.85
2023-05-11T11:26:10.103Z,2.37
2023-05-11T11:28:55.070Z,1.92
2023-05-11T11:31:27.811Z,1.87
2023-05-11T11:33:59.165Z,1.73
2023-05-11T11:37:03.736Z,1.60
2023-05-11T11:39:42.647Z,2.25
2023-05-11T11:42:14.311Z,1.95
2023-05-11T11:44:42.178Z,1.65
2023-05-11T11:47:18.981Z,2.28
2023-05-11T11:49:48.529Z,2.78
2023-05-11T11:52:35.931Z,2.42
2023-05-11T11:55:05.324Z,2.80
2023-05-11T11:57:35.273Z,2.42
2023-05-11T12:00:07.280Z,2.78
2023-05-11T12:02:35.179Z,2.80
2023-05-11T12:05:13.205Z,2.55
2023-05-11T12:07:45.372Z,2.60
2023-05-11T12:10:17.593Z,2.67
2023-05-11T12:12:51.302Z,2.60
2023-05-11T12:15:28.245Z,3.00
2023-05-11T12:17:55.947Z,2.50
2023-05-11T12:20:23.148Z,2.67
2023-05-11T12:22:50.478Z,2.72
2023-05-11T12:25:18.875Z,2.08
2023-05-11T12:27:52.001Z,2.60
2023-05-11T12:30:32.924Z,2.90
2023-05-11T12:33:00.488Z,2.50
2023-05-11T12:35:28.941Z,1.98
2023-05-11T12:37:57.197Z,2.65
2023-05-11T12:40:24.381Z,2.50
2023-05-11T12:42:52.251Z,2.53
2023-05-11T12:45:20.741Z,2.00
2023-05-11T12:47:49.068Z,2.78
2023-05-11T12:50:16.829Z,3.20
2023-05-11T12:52:44.124Z,2.50
2023-05-11T12:55:11.840Z,3.05
2023-05-11T12:57:40.429Z,2.67
2023-05-11T13:00:14.879Z,2.80
2023-05-11T13:02:51.242Z,2.70
2023-05-11T13:05:19.942Z,3.05
2023-05-11T13:07:48.690Z,3.00
2023-05-11T13:10:15.845Z,3.25
2023-05-11T13:12:50.467Z,3.10
2023-05-11T13:15:17.927Z,2.60
2023-05-11T13:17:45.264Z,3.37
2023-05-11T13:20:27.291Z,3.60
2023-05-11T13:23:07.240Z,3.25
2023-05-11T13:25:36.039Z,2.85
2023-05-11T13:28:03.085Z,2.80
2023-05-11T13:30:30.844Z,2.60
2023-05-11T13:32:58.657Z,3.37
2023-05-11T13:35:25.744Z,2.80
2023-05-11T13:37:52.636Z,2.92
2023-05-11T13:40:19.527Z,3.20
2023-05-11T13:42:46.534Z,2.95
2023-05-11T13:45:13.405Z,3.08
2023-05-11T13:47:45.391Z,3.10
2023-05-11T13:50:12.571Z,2.50
2023-05-11T13:52:41.115Z,2.72
2023-05-11T13:55:08.443Z,3.25
2023-05-11T13:57:35.586Z,2.87
2023-05-11T14:00:02.427Z,3.08
2023-05-11T14:02:29.431Z,2.80
2023-05-11T14:04:56.426Z,4.00
2023-05-11T14:07:29.760Z,2.92
2023-05-11T14:10:03.184Z,3.12
2023-05-11T14:12:30.049Z,3.15
2023-05-11T14:14:56.923Z,4.18
2023-05-11T14:17:23.786Z,3.15
2023-05-11T14:19:50.686Z,3.00
2023-05-11T14:22:17.532Z,2.67
2023-05-11T14:24:44.358Z,3.70
2023-05-11T14:27:11.225Z,2.85
2023-05-11T14:29:41.134Z,2.80
2023-05-11T14:32:10.328Z,3.08
2023-05-11T14:34:37.371Z,3.00
2023-05-11T14:37:05.833Z,2.83
2023-05-11T14:39:32.746Z,2.67
2023-05-11T14:41:59.561Z,2.75
2023-05-11T14:44:26.474Z,3.00
2023-05-11T14:46:53.749Z,3.03
2023-05-11T14:49:24.503Z,2.97
2023-05-11T14:51:51.369Z,3.33
2023-05-11T14:54:18.192Z,4.32
2023-05-11T14:56:51.394Z,3.08
2023-05-11T14:59:18.488Z,2.70
2023-05-11T15:01:45.507Z,2.87
2023-05-11T15:04:12.498Z,2.92
2023-05-11T15:06:39.443Z,3.40
2023-05-11T15:09:06.843Z,3.20
2023-05-11T15:11:33.708Z,3.00
2023-05-11T15:14:01.193Z,3.65
2023-05-11T15:16:28.120Z,4.40
2023-05-11T15:19:06.721Z,3.85
2023-05-11T15:21:33.662Z,3.85
2023-05-11T15:24:00.553Z,4.20
2023-05-11T15:26:27.391Z,5.20
2023-05-11T15:28:54.275Z,4.40
2023-05-11T15:31:22.452Z,4.82
2023-05-11T15:33:49.351Z,4.62
2023-05-11T15:36:16.313Z,4.93
2023-05-11T15:38:44.209Z,4.40
2023-05-11T15:41:11.079Z,5.37
2023-05-11T15:43:37.991Z,5.30
2023-05-11T15:46:05.830Z,5.03
2023-05-11T15:48:33.167Z,4.93
2023-05-11T15:51:01.119Z,4.78
2023-05-11T15:53:28.080Z,4.43
2023-05-11T15:55:55.905Z,4.25
2023-05-11T15:58:23.243Z,4.57
2023-05-11T16:00:50.299Z,4.53
2023-05-11T16:03:17.584Z,3.60
2023-05-11T16:05:45.686Z,4.07
2023-05-11T16:08:13.246Z,4.30
2023-05-11T16:10:40.182Z,4.00
2023-05-11T16:13:07.335Z,3.60
2023-05-11T16:15:34.186Z,4.30
2023-05-11T16:18:04.011Z,4.50
2023-05-11T16:20:31.913Z,4.20
2023-05-11T16:22:58.839Z,3.95
2023-05-11T16:25:25.726Z,4.53
2023-05-11T16:27:52.572Z,4.62
2023-05-11T16:30:24.889Z,3.47
2023-05-11T16:32:53.107Z,4.60
2023-05-11T16:35:20.568Z,5.18
2023-05-11T16:37:48.088Z,4.40
2023-05-11T16:40:18.472Z,4.40
2023-05-11T16:42:46.977Z,4.03
2023-05-11T16:45:13.948Z,4.18
2023-05-11T16:53:59.822Z,3.80
2023-05-11T16:56:38.722Z,3.95
2023-05-11T16:59:10.255Z,3.60
2023-05-11T17:01:50.752Z,3.87
2023-05-11T17:04:20.755Z,4.10
2023-05-11T17:06:47.916Z,4.20
2023-05-11T17:09:17.301Z,4.47
2023-05-11T17:11:44.437Z,3.87
2023-05-11T17:14:11.392Z,4.20
2023-05-11T17:16:56.293Z,4.00
2023-05-11T17:19:23.193Z,4.07
2023-05-11T17:21:52.883Z,4.78
2023-05-11T17:24:22.228Z,5.18
2023-05-11T17:26:56.962Z,4.25
2023-05-11T17:29:24.024Z,5.05
2023-05-11T17:31:52.050Z,5.10
2023-05-11T17:34:20.520Z,4.37
2023-05-11T17:37:02.261Z,5.18
2023-05-11T17:39:34.279Z,4.15
2023-05-11T17:42:01.173Z,5.22
2023-05-11T17:44:28.396Z,4.35
2023-05-11T17:46:55.219Z,5.95
2023-05-11T17:51:48.676Z,5.15
2023-05-11T17:56:42.211Z,4.40
2023-05-11T17:59:09.262Z,5.00
2023-05-11T18:01:36.128Z,5.05
2023-05-11T18:04:04.779Z,5.50
2023-05-11T18:06:31.801Z,4.93
2023-05-11T18:08:59.638Z,3.78
2023-05-11T18:11:27.331Z,5.18
2023-05-11T18:13:54.195Z,5.60
2023-05-11T18:16:21.681Z,4.35
2023-05-11T18:18:48.604Z,5.25
2023-05-11T18:21:15.416Z,3.97
2023-05-11T18:26:09.450Z,3.80
2023-05-11T18:28:36.382Z,5.32
2023-05-11T18:31:03.345Z,5.10
2023-05-11T18:33:30.269Z,4.62
2023-05-11T18:35:57.116Z,4.00
2023-05-11T18:40:51.515Z,4.40
2023-05-11T18:43:18.383Z,5.65
2023-05-11T18:45:46.483Z,4.28
2023-05-11T18:48:13.493Z,4.35
2023-05-11T18:50:40.517Z,5.03
2023-05-11T18:53:07.357Z,4.93
2023-05-11T18:55:44.939Z,5.50
2023-05-11T18:58:20.198Z,3.83
2023-05-11T19:00:48.722Z,4.10
2023-05-11T19:03:16.371Z,4.75
2023-05-11T19:05:43.824Z,3.55
2023-05-11T19:08:11.306Z,4.43
2023-05-11T19:10:39.546Z,5.15
2023-05-11T19:13:07.332Z,3.15
2023-05-11T19:15:34.367Z,4.90
2023-05-11T19:18:01.265Z,4.18
2023-05-11T19:20:28.115Z,3.80
2023-05-11T19:25:21.665Z,4.62
2023-05-11T19:27:48.580Z,3.87
2023-05-11T19:30:15.485Z,2.78
2023-05-11T19:32:43.776Z,3.17
2023-05-11T19:35:12.857Z,3.95
2023-05-11T19:37:39.760Z,2.85
2023-05-11T19:40:43.044Z,3.67
2023-05-11T19:42:54.100Z,3.17
2023-05-11T19:45:21.072Z,3.65
2023-05-11T19:47:47.986Z,2.62
2023-05-11T19:50:15.175Z,1.77
2023-05-11T19:52:42.056Z,4.28
2023-05-11T19:55:09.091Z,3.12
2023-05-11T19:57:37.422Z,2.22
2023-05-11T20:00:07.891Z,3.58
2023-05-11T20:02:35.970Z,3.15
2023-05-11T20:05:04.262Z,3.35
2023-05-11T20:07:32.111Z,3.30
2023-05-11T20:09:59.036Z,3.67
2023-05-11T20:12:25.886Z,3.95
2023-05-11T20:14:53.120Z,3.08
2023-05-11T20:17:20.132Z,2.92
2023-05-11T20:19:47.033Z,3.60
2023-05-11T20:22:13.865Z,3.35
2023-05-11T20:27:11.172Z,3.92
2023-05-11T20:29:40.409Z,4.50
2023-05-11T20:32:07.763Z,3.15
2023-05-11T20:34:34.774Z,3.58
2023-05-11T20:37:01.671Z,5.85
2023-05-11T20:39:28.598Z,3.35
2023-05-11T20:41:58.729Z,2.95
2023-05-11T20:44:25.979Z,3.58
2023-05-11T20:46:52.874Z,3.17
2023-05-11T20:49:34.691Z,2.92
2023-05-11T20:52:04.977Z,4.43
2023-05-11T20:54:33.911Z,4.07
2023-05-11T20:57:01.757Z,1.87
2023-05-11T21:01:59.860Z,3.00
2023-05-11T21:04:26.677Z,2.60
2023-05-11T21:09:23.178Z,2.97
2023-05-11T21:11:50.075Z,3.78
2023-05-11T21:14:16.997Z,4.12
2023-05-11T21:16:43.882Z,3.55
2023-05-11T21:19:10.885Z,3.20
2023-05-11T21:21:38.247Z,3.37
2023-05-11T21:24:06.274Z,3.97
2023-05-11T21:26:33.244Z,3.10
2023-05-11T21:29:00.414Z,3.72
2023-05-11T21:31:27.436Z,2.65
2023-05-11T21:33:54.657Z,3.95
2023-05-11T21:36:22.371Z,2.92
2023-05-11T21:38:49.342Z,3.25
2023-05-11T21:41:17.043Z,3.30
2023-05-11T21:43:43.906Z,3.85
2023-05-11T21:46:10.870Z,2.33
2023-05-11T21:48:37.719Z,3.33
2023-05-11T21:53:31.368Z,3.65
2023-05-11T21:55:58.295Z,3.20
2023-05-11T21:58:25.188Z,3.95
2023-05-11T22:00:52.123Z,4.55
2023-05-11T22:03:19.467Z,2.62
2023-05-11T22:05:46.458Z,3.53
2023-05-11T22:08:15.475Z,3.67
2023-05-11T22:10:43.471Z,3.22
2023-05-11T22:13:10.520Z,2.87
2023-05-11T22:15:37.356Z,3.50
2023-05-11T22:20:31.866Z,3.37
2023-05-11T22:22:59.467Z,3.67
2023-05-11T22:25:26.718Z,3.58
2023-05-11T22:27:53.876Z,3.62
2023-05-11T22:30:21.195Z,3.17
2023-05-11T22:32:48.337Z,3.60
2023-05-11T22:35:15.173Z,3.42
2023-05-11T22:37:42.066Z,3.62
2023-05-11T22:42:35.996Z,2.45
2023-05-11T22:45:02.980Z,3.53
2023-05-11T22:47:30.304Z,3.62
2023-05-11T22:49:57.298Z,3.37
2023-05-11T22:52:24.175Z,4.68
2023-05-11T22:55:00.450Z,4.30
2023-05-11T22:57:27.882Z,3.50
2023-05-11T22:59:54.795Z,3.30
2023-05-11T23:02:23.200Z,2.83
2023-05-11T23:04:53.575Z,3.50
2023-05-11T23:07:20.398Z,3.62
2023-05-11T23:12:14.126Z,4.18
2023-05-11T23:14:41.961Z,4.47
2023-05-11T23:17:09.251Z,4.68
2023-05-11T23:19:36.452Z,3.72
2023-05-11T23:22:03.472Z,4.15
2023-05-11T23:24:30.340Z,3.85
2023-05-11T23:26:57.269Z,4.05
2023-05-11T23:29:24.544Z,4.00
2023-05-11T23:31:51.658Z,3.50
2023-05-11T23:34:18.736Z,3.08
2023-05-11T23:36:45.804Z,2.60
2023-05-11T23:39:12.701Z,3.03
2023-05-11T23:41:39.571Z,3.75
2023-05-11T23:44:06.412Z,3.80
2023-05-11T23:48:59.898Z,3.17
2023-05-11T23:53:53.399Z,3.55
2023-05-11T23:56:20.241Z,3.28
